BAW212 KBOS-EGLL
Flight info
| Callsign | BAW212 |
|---|---|
| Flight time | N/A |
| Altitude | 39000 |
| Route | LBSTA8 LBSTA DCT ALLEX N565B TUDEP/M083F400 DCT 52N050W 53N040W 54N030W 55N020W DCT RESNO DCT NETKI/N0477F410 DCT BOFUM Q37 MALUD Q38 NUGRA NUGRA2H |
| Aircraft | A388/J-SDE1E2E3GHIJ3J4J5J6LM1M2OP2RWXYZ/LB1D1 |
Departure
| Time | 2026-05-06 13:40 |
|---|---|
| Airport | Boston Logan International Airport (KBOS) |
Arrival
| Time | N/A |
|---|---|
| Airport | London Heathrow Airport (EGLL) |
| Time | Latitude | Longitude | Altitude | Speed | Heading |
|---|---|---|---|---|---|
| 2026-05-06 11:49 | 42.37055 | -71.02246 | 31 ft | 0 kts | 141° |
| 2026-05-06 13:23 | 42.37062 | -71.02254 | 30 ft | 4 kts | 148° |
| 2026-05-06 13:24 | 42.37083 | -71.02263 | 30 ft | 4 kts | 177° |
| 2026-05-06 13:24 | 42.37104 | -71.02267 | 30 ft | 3 kts | 161° |
| 2026-05-06 13:24 | 42.37126 | -71.02282 | 29 ft | 4 kts | 139° |
| 2026-05-06 13:24 | 42.37137 | -71.02304 | 28 ft | 4 kts | 105° |
| 2026-05-06 13:25 | 42.37139 | -71.02337 | 27 ft | 4 kts | 85° |
| 2026-05-06 13:25 | 42.37138 | -71.02355 | 27 ft | 1 kts | 86° |
| 2026-05-06 13:29 | 42.37138 | -71.02353 | 27 ft | 2 kts | 86° |
| 2026-05-06 13:29 | 42.37139 | -71.02310 | 28 ft | 6 kts | 87° |
| 2026-05-06 13:29 | 42.37143 | -71.02268 | 30 ft | 2 kts | 73° |
| 2026-05-06 13:30 | 42.37157 | -71.02234 | 30 ft | 6 kts | 44° |
| 2026-05-06 13:30 | 42.37197 | -71.02185 | 30 ft | 9 kts | 42° |
| 2026-05-06 13:30 | 42.37234 | -71.02128 | 30 ft | 9 kts | 69° |
| 2026-05-06 13:30 | 42.37235 | -71.02044 | 30 ft | 10 kts | 97° |
| 2026-05-06 13:31 | 42.37230 | -71.01972 | 30 ft | 6 kts | 78° |
| 2026-05-06 13:31 | 42.37257 | -71.01925 | 30 ft | 8 kts | 38° |
| 2026-05-06 13:31 | 42.37297 | -71.01876 | 30 ft | 7 kts | 65° |
| 2026-05-06 13:31 | 42.37292 | -71.01821 | 30 ft | 7 kts | 127° |
| 2026-05-06 13:32 | 42.37256 | -71.01769 | 30 ft | 8 kts | 135° |
| 2026-05-06 13:32 | 42.37210 | -71.01709 | 30 ft | 10 kts | 135° |
| 2026-05-06 13:32 | 42.37161 | -71.01644 | 30 ft | 10 kts | 135° |
| 2026-05-06 13:32 | 42.37111 | -71.01577 | 30 ft | 11 kts | 136° |
| 2026-05-06 13:33 | 42.37057 | -71.01505 | 30 ft | 11 kts | 135° |
| 2026-05-06 13:33 | 42.37002 | -71.01431 | 30 ft | 11 kts | 135° |
| 2026-05-06 13:33 | 42.36947 | -71.01358 | 30 ft | 11 kts | 134° |
| 2026-05-06 13:33 | 42.36899 | -71.01292 | 30 ft | 6 kts | 132° |
| 2026-05-06 13:34 | 42.36885 | -71.01243 | 30 ft | 6 kts | 79° |
| 2026-05-06 13:34 | 42.36913 | -71.01193 | 30 ft | 9 kts | 43° |
| 2026-05-06 13:34 | 42.36968 | -71.01130 | 30 ft | 12 kts | 35° |
| 2026-05-06 13:34 | 42.37058 | -71.01066 | 30 ft | 17 kts | 26° |
| 2026-05-06 13:35 | 42.37177 | -71.00986 | 30 ft | 21 kts | 26° |
| 2026-05-06 13:35 | 42.37323 | -71.00897 | 30 ft | 25 kts | 20° |
| 2026-05-06 13:35 | 42.37497 | -71.00814 | 30 ft | 28 kts | 19° |
| 2026-05-06 13:35 | 42.37669 | -71.00730 | 30 ft | 20 kts | 20° |
| 2026-05-06 13:36 | 42.37773 | -71.00679 | 30 ft | 10 kts | 20° |
| 2026-05-06 13:36 | 42.37812 | -71.00658 | 30 ft | 7 kts | 26° |
| 2026-05-06 13:36 | 42.37835 | -71.00636 | 30 ft | 1 kts | 65° |
| 2026-05-06 13:36 | 42.37838 | -71.00617 | 30 ft | 5 kts | 90° |
| 2026-05-06 13:37 | 42.37826 | -71.00541 | 30 ft | 12 kts | 111° |
| 2026-05-06 13:37 | 42.37786 | -71.00403 | 30 ft | 19 kts | 111° |
| 2026-05-06 13:37 | 42.37738 | -71.00221 | 30 ft | 18 kts | 109° |
| 2026-05-06 13:37 | 42.37706 | -71.00098 | 30 ft | 10 kts | 109° |
| 2026-05-06 13:38 | 42.37684 | -71.00014 | 30 ft | 6 kts | 109° |
| 2026-05-06 13:38 | 42.37672 | -70.99970 | 30 ft | 3 kts | 131° |
| 2026-05-06 13:38 | 42.37660 | -70.99961 | 30 ft | 2 kts | 174° |
| 2026-05-06 13:38 | 42.37639 | -70.99964 | 30 ft | 4 kts | 196° |
| 2026-05-06 13:39 | 42.37553 | -71.00001 | 31 ft | 39 kts | 198° |
| 2026-05-06 13:39 | 42.37060 | -71.00238 | 31 ft | 107 kts | 200° |
| 2026-05-06 13:39 | 42.36200 | -71.00651 | 37 ft | 150 kts | 198° |
| 2026-05-06 13:39 | 42.35209 | -71.01127 | 526 ft | 147 kts | 199° |
| 2026-05-06 13:40 | 42.34246 | -71.01600 | 1101 ft | 145 kts | 200° |
| 2026-05-06 13:40 | 42.33323 | -71.02009 | 1740 ft | 141 kts | 190° |
| 2026-05-06 13:40 | 42.32333 | -71.01603 | 2031 ft | 171 kts | 151° |
| 2026-05-06 13:40 | 42.31607 | -71.00123 | 2227 ft | 209 kts | 121° |
| 2026-05-06 13:41 | 42.31111 | -70.98147 | 2333 ft | 238 kts | 115° |
| 2026-05-06 13:41 | 42.31005 | -70.95805 | 2925 ft | 261 kts | 86° |
| 2026-05-06 13:41 | 42.31482 | -70.93393 | 3790 ft | 268 kts | 82° |
| 2026-05-06 13:41 | 42.31917 | -70.90859 | 4297 ft | 286 kts | 85° |
| 2026-05-06 13:42 | 42.32322 | -70.88138 | 4835 ft | 302 kts | 85° |
| 2026-05-06 13:42 | 42.32729 | -70.85357 | 5696 ft | 301 kts | 84° |
| 2026-05-06 13:42 | 42.33142 | -70.82565 | 6480 ft | 306 kts | 84° |
| 2026-05-06 13:42 | 42.33564 | -70.79721 | 7217 ft | 311 kts | 84° |
| 2026-05-06 13:43 | 42.34175 | -70.76870 | 7906 ft | 325 kts | 66° |
| 2026-05-06 13:43 | 42.35559 | -70.74409 | 8647 ft | 335 kts | 41° |
| 2026-05-06 13:43 | 42.37553 | -70.72799 | 9367 ft | 337 kts | 15° |
| 2026-05-06 13:43 | 42.39822 | -70.72079 | 10142 ft | 334 kts | 4° |
| 2026-05-06 13:44 | 42.42134 | -70.71552 | 10504 ft | 352 kts | 5° |
| 2026-05-06 13:44 | 42.44608 | -70.70855 | 10727 ft | 372 kts | 7° |
| 2026-05-06 13:44 | 42.47201 | -70.70209 | 11057 ft | 385 kts | 6° |
| 2026-05-06 13:44 | 42.49835 | -70.69475 | 11727 ft | 388 kts | 7° |
| 2026-05-06 13:45 | 42.52479 | -70.68682 | 12396 ft | 391 kts | 8° |
| 2026-05-06 13:45 | 42.57840 | -70.67049 | 13742 ft | 396 kts | 7° |
| 2026-05-06 13:45 | 42.60545 | -70.66229 | 14348 ft | 399 kts | 7° |
| 2026-05-06 13:46 | 42.63259 | -70.65409 | 14975 ft | 400 kts | 7° |
| 2026-05-06 13:46 | 42.65988 | -70.64586 | 15576 ft | 403 kts | 7° |
| 2026-05-06 13:46 | 42.68698 | -70.63835 | 16164 ft | 402 kts | 4° |
| 2026-05-06 13:46 | 42.71473 | -70.63240 | 16763 ft | 405 kts | 4° |
| 2026-05-06 13:47 | 42.74260 | -70.62631 | 17347 ft | 407 kts | 4° |
| 2026-05-06 13:47 | 42.77063 | -70.61974 | 17898 ft | 413 kts | 9° |
| 2026-05-06 13:47 | 42.79776 | -70.60515 | 18405 ft | 424 kts | 27° |
| 2026-05-06 13:47 | 42.82124 | -70.58051 | 18866 ft | 431 kts | 45° |
| 2026-05-06 13:48 | 42.83932 | -70.54794 | 19308 ft | 435 kts | 60° |
| 2026-05-06 13:48 | 42.85389 | -70.51172 | 19767 ft | 436 kts | 63° |
| 2026-05-06 13:48 | 42.86842 | -70.47505 | 20214 ft | 440 kts | 61° |
| 2026-05-06 13:48 | 42.88383 | -70.43885 | 20650 ft | 443 kts | 59° |
| 2026-05-06 13:49 | 42.90007 | -70.40286 | 21079 ft | 446 kts | 58° |
| 2026-05-06 13:49 | 42.91678 | -70.36696 | 21472 ft | 451 kts | 57° |
| 2026-05-06 13:49 | 42.93361 | -70.33121 | 21855 ft | 455 kts | 57° |
| 2026-05-06 13:49 | 42.95081 | -70.29477 | 22288 ft | 458 kts | 57° |
| 2026-05-06 13:50 | 42.96811 | -70.25806 | 22692 ft | 461 kts | 57° |
| 2026-05-06 13:50 | 42.98552 | -70.22105 | 23111 ft | 465 kts | 57° |
| 2026-05-06 13:50 | 43.00302 | -70.18376 | 23509 ft | 467 kts | 57° |
| 2026-05-06 13:50 | 43.02049 | -70.14646 | 23974 ft | 467 kts | 57° |
| 2026-05-06 13:51 | 43.03803 | -70.10898 | 24341 ft | 469 kts | 57° |
| 2026-05-06 13:51 | 43.05564 | -70.07129 | 24710 ft | 471 kts | 57° |
| 2026-05-06 13:51 | 43.07327 | -70.03352 | 25114 ft | 473 kts | 57° |
| 2026-05-06 13:51 | 43.09102 | -69.99543 | 25517 ft | 475 kts | 57° |
| 2026-05-06 13:52 | 43.10879 | -69.95724 | 25925 ft | 477 kts | 56° |
| 2026-05-06 13:52 | 43.12664 | -69.91884 | 26377 ft | 479 kts | 56° |
| 2026-05-06 13:52 | 43.14455 | -69.88026 | 26804 ft | 481 kts | 56° |
| 2026-05-06 13:52 | 43.16254 | -69.84147 | 27269 ft | 482 kts | 56° |
| 2026-05-06 13:53 | 43.18050 | -69.80266 | 27820 ft | 483 kts | 56° |
| 2026-05-06 13:53 | 43.19859 | -69.76357 | 28168 ft | 488 kts | 56° |
| 2026-05-06 13:53 | 43.21681 | -69.72413 | 28614 ft | 491 kts | 56° |
| 2026-05-06 13:53 | 43.23513 | -69.68439 | 29102 ft | 493 kts | 56° |
| 2026-05-06 13:54 | 43.25349 | -69.64452 | 29562 ft | 496 kts | 56° |
| 2026-05-06 13:54 | 43.27194 | -69.60441 | 30017 ft | 498 kts | 56° |
| 2026-05-06 13:54 | 43.29047 | -69.56406 | 30413 ft | 501 kts | 56° |
| 2026-05-06 13:54 | 43.30912 | -69.52340 | 30816 ft | 504 kts | 56° |
| 2026-05-06 13:55 | 43.32782 | -69.48258 | 31215 ft | 507 kts | 56° |
| 2026-05-06 13:55 | 43.34643 | -69.44191 | 31572 ft | 510 kts | 56° |
| 2026-05-06 13:55 | 43.35915 | -69.41406 | 31850 ft | 511 kts | 56° |
| 2026-05-06 13:55 | 43.38426 | -69.35901 | 32363 ft | 514 kts | 56° |
| 2026-05-06 13:56 | 43.40328 | -69.31725 | 32749 ft | 516 kts | 56° |
| 2026-05-06 13:56 | 43.42231 | -69.27541 | 33261 ft | 516 kts | 55° |
| 2026-05-06 13:56 | 43.44136 | -69.23344 | 33623 ft | 519 kts | 55° |
| 2026-05-06 13:56 | 43.45406 | -69.20547 | 33870 ft | 521 kts | 55° |
| 2026-05-06 13:57 | 43.47356 | -69.16243 | 34089 ft | 526 kts | 55° |
| 2026-05-06 13:57 | 43.49273 | -69.12008 | 34405 ft | 529 kts | 55° |
| 2026-05-06 13:57 | 43.51243 | -69.07646 | 34754 ft | 531 kts | 55° |
| 2026-05-06 13:57 | 43.53171 | -69.03369 | 35153 ft | 531 kts | 55° |
| 2026-05-06 13:58 | 43.55123 | -68.99034 | 35572 ft | 531 kts | 55° |
| 2026-05-06 13:58 | 43.57070 | -68.94703 | 35981 ft | 531 kts | 55° |
| 2026-05-06 13:58 | 43.59015 | -68.90372 | 36405 ft | 531 kts | 55° |
| 2026-05-06 13:58 | 43.60955 | -68.86044 | 36783 ft | 532 kts | 55° |
| 2026-05-06 13:59 | 43.62902 | -68.81695 | 37189 ft | 532 kts | 55° |
| 2026-05-06 13:59 | 43.64845 | -68.77348 | 37639 ft | 531 kts | 55° |
| 2026-05-06 13:59 | 43.66781 | -68.73009 | 38045 ft | 530 kts | 55° |
| 2026-05-06 13:59 | 43.68708 | -68.68686 | 38691 ft | 525 kts | 55° |
| 2026-05-06 14:00 | 43.70617 | -68.64394 | 38976 ft | 525 kts | 55° |
| 2026-05-06 14:00 | 43.72525 | -68.60104 | 39033 ft | 532 kts | 55° |
| 2026-05-06 14:00 | 43.76374 | -68.51422 | 39018 ft | 526 kts | 55° |
| 2026-05-06 14:01 | 43.80207 | -68.42752 | 39024 ft | 529 kts | 55° |
| 2026-05-06 14:01 | 43.84047 | -68.34039 | 39048 ft | 529 kts | 55° |
| 2026-05-06 14:02 | 43.87873 | -68.25333 | 39033 ft | 529 kts | 55° |
| 2026-05-06 14:02 | 43.91694 | -68.16611 | 39032 ft | 529 kts | 55° |
| 2026-05-06 14:03 | 43.95488 | -68.07924 | 39056 ft | 529 kts | 55° |
| 2026-05-06 14:03 | 43.99293 | -67.99185 | 39055 ft | 529 kts | 56° |
| 2026-05-06 14:04 | 44.03097 | -67.90423 | 39042 ft | 529 kts | 56° |
| 2026-05-06 14:04 | 44.06889 | -67.81662 | 39048 ft | 529 kts | 56° |
| 2026-05-06 14:05 | 44.10678 | -67.72881 | 39045 ft | 529 kts | 56° |
| 2026-05-06 14:05 | 44.14459 | -67.64091 | 39057 ft | 529 kts | 56° |
| 2026-05-06 14:06 | 44.18211 | -67.55344 | 39049 ft | 530 kts | 56° |
| 2026-05-06 14:06 | 44.21984 | -67.46518 | 39074 ft | 529 kts | 56° |
| 2026-05-06 14:07 | 44.25739 | -67.37707 | 39075 ft | 528 kts | 56° |
| 2026-05-06 14:07 | 44.29488 | -67.28885 | 39070 ft | 528 kts | 56° |
| 2026-05-06 14:08 | 44.33224 | -67.20065 | 39065 ft | 527 kts | 56° |
| 2026-05-06 14:08 | 44.36952 | -67.11242 | 39067 ft | 527 kts | 56° |
| 2026-05-06 14:09 | 44.40676 | -67.02412 | 39067 ft | 526 kts | 56° |
| 2026-05-06 14:09 | 44.45107 | -66.94454 | 39061 ft | 520 kts | 45° |
| 2026-05-06 14:10 | 44.49854 | -66.86779 | 39064 ft | 521 kts | 45° |
| 2026-05-06 14:10 | 44.54609 | -66.79090 | 39107 ft | 520 kts | 46° |
| 2026-05-06 14:11 | 44.59313 | -66.71482 | 39092 ft | 519 kts | 46° |
| 2026-05-06 14:11 | 44.64036 | -66.63827 | 39085 ft | 517 kts | 46° |
| 2026-05-06 14:12 | 44.68744 | -66.56177 | 39075 ft | 516 kts | 46° |
| 2026-05-06 14:12 | 44.73407 | -66.48580 | 39076 ft | 515 kts | 46° |
| 2026-05-06 14:13 | 44.78089 | -66.40931 | 39069 ft | 515 kts | 46° |
| 2026-05-06 14:13 | 44.82753 | -66.33289 | 39068 ft | 514 kts | 46° |
| 2026-05-06 14:14 | 44.87407 | -66.25633 | 39071 ft | 514 kts | 47° |
| 2026-05-06 14:14 | 44.92064 | -66.17948 | 39064 ft | 515 kts | 47° |
| 2026-05-06 14:15 | 44.96714 | -66.10254 | 39071 ft | 515 kts | 47° |
| 2026-05-06 14:15 | 45.01337 | -66.02582 | 39097 ft | 516 kts | 47° |
| 2026-05-06 14:16 | 45.05994 | -65.94834 | 39073 ft | 517 kts | 47° |
| 2026-05-06 14:16 | 45.10652 | -65.87062 | 39077 ft | 518 kts | 47° |
| 2026-05-06 14:17 | 45.15308 | -65.79272 | 39081 ft | 518 kts | 47° |
| 2026-05-06 14:17 | 45.19964 | -65.71461 | 39085 ft | 519 kts | 47° |
| 2026-05-06 14:18 | 45.24618 | -65.63631 | 39088 ft | 519 kts | 47° |
| 2026-05-06 14:18 | 45.29266 | -65.55789 | 39096 ft | 519 kts | 47° |
| 2026-05-06 14:19 | 45.33914 | -65.47926 | 39098 ft | 519 kts | 47° |
| 2026-05-06 14:19 | 45.38551 | -65.40058 | 39093 ft | 519 kts | 47° |
| 2026-05-06 14:20 | 45.43148 | -65.32237 | 39086 ft | 518 kts | 47° |
| 2026-05-06 14:20 | 45.47767 | -65.24356 | 39099 ft | 518 kts | 48° |